Terminal Aerodrome Forecast
Issued by NWS Upton, NY

Home | Current Version | Previous Version | Text Only | Print | Product List | Glossary On
Versions: 1 2 3 4 5 6 7 8 9 10 11 12 13 14 15 16 17 18 19 20 21 22 23 24 25 26 27
000
FTUS41 KOKX 261100
TAFLGA
TAF
KLGA 261134Z 2612/2712 23007KT P6SM SCT040 BKN100
     FM261500 23008KT P6SM SCT040 BKN100
     FM261800 18012KT P6SM SCT040 BKN100
     FM270100 20009KT P6SM BKN040 BKN100 PROB30 2707/2712 5SM SHRA
      BR=

USA.gov is the U.S. government's official web portal to all federal, state and local government web resources and services.